sensor_id;sensor_type;location;lat;lon;timestamp;pressure;altitude;pressure_sealevel;temperature;humidity
32081;BME280;18593;51.426;7.030;2023-10-09T00:02:44;100998.56;;;16.02;82.32
32081;BME280;18593;51.426;7.030;2023-10-09T00:05:13;100999.41;;;16.03;82.29
32081;BME280;18593;51.426;7.030;2023-10-09T00:07:49;101004.53;;;16.04;82.04
32081;BME280;18593;51.426;7.030;2023-10-09T00:10:19;101002.19;;;16.08;81.40
32081;BME280;18593;51.426;7.030;2023-10-09T00:12:48;101001.13;;;16.09;81.55
32081;BME280;18593;51.426;7.030;2023-10-09T00:15:16;101010.03;;;16.09;81.29
32081;BME280;18593;51.426;7.030;2023-10-09T00:17:45;100998.44;;;16.09;80.96
32081;BME280;18593;51.426;7.030;2023-10-09T00:20:14;100994.69;;;16.10;80.95
32081;BME280;18593;51.426;7.030;2023-10-09T00:22:49;100990.38;;;16.09;80.95
32081;BME280;18593;51.426;7.030;2023-10-09T00:25:18;101004.66;;;16.09;80.98
32081;BME280;18593;51.426;7.030;2023-10-09T00:27:49;100999.16;;;16.04;82.01
32081;BME280;18593;51.426;7.030;2023-10-09T00:30:17;100987.13;;;16.07;81.41
32081;BME280;18593;51.426;7.030;2023-10-09T00:32:47;100994.94;;;16.08;81.32
32081;BME280;18593;51.426;7.030;2023-10-09T00:35:27;100993.66;;;16.11;81.26
32081;BME280;18593;51.426;7.030;2023-10-09T00:38:10;100989.31;;;16.10;81.23
32081;BME280;18593;51.426;7.030;2023-10-09T00:40:49;100979.16;;;16.12;81.20
32081;BME280;18593;51.426;7.030;2023-10-09T00:43:23;100980.53;;;16.14;80.88
32081;BME280;18593;51.426;7.030;2023-10-09T00:45:55;100978.66;;;16.15;80.63
32081;BME280;18593;51.426;7.030;2023-10-09T00:48:24;100970.59;;;16.15;80.58
32081;BME280;18593;51.426;7.030;2023-10-09T00:50:59;100969.31;;;16.17;80.56
32081;BME280;18593;51.426;7.030;2023-10-09T00:53:27;100970.59;;;16.15;80.87
32081;BME280;18593;51.426;7.030;2023-10-09T00:56:01;100975.66;;;16.11;81.20
32081;BME280;18593;51.426;7.030;2023-10-09T00:58:37;100975.16;;;16.14;80.99
32081;BME280;18593;51.426;7.030;2023-10-09T01:01:06;100964.41;;;16.14;80.86
32081;BME280;18593;51.426;7.030;2023-10-09T01:03:42;100951.53;;;16.16;80.84
32081;BME280;18593;51.426;7.030;2023-10-09T01:06:12;100949.66;;;16.17;80.56
32081;BME280;18593;51.426;7.030;2023-10-09T01:08:47;100941.00;;;16.15;80.57
32081;BME280;18593;51.426;7.030;2023-10-09T01:11:38;100945.22;;;16.11;80.76
32081;BME280;18593;51.426;7.030;2023-10-09T01:14:14;100942.88;;;16.14;80.58
32081;BME280;18593;51.426;7.030;2023-10-09T01:16:43;100945.22;;;16.11;80.56
32081;BME280;18593;51.426;7.030;2023-10-09T01:19:13;100953.75;;;16.08;80.86
32081;BME280;18593;51.426;7.030;2023-10-09T01:21:48;100934.69;;;16.09;80.90
32081;BME280;18593;51.426;7.030;2023-10-09T01:24:17;100945.44;;;16.09;80.58
32081;BME280;18593;51.426;7.030;2023-10-09T01:26:47;100942.28;;;16.12;80.58
32081;BME280;18593;51.426;7.030;2023-10-09T01:29:18;100938.78;;;16.12;80.16
32081;BME280;18593;51.426;7.030;2023-10-09T01:31:47;100945.44;;;16.09;80.63
32081;BME280;18593;51.426;7.030;2023-10-09T01:34:22;100940.06;;;16.09;80.59
32081;BME280;18593;51.426;7.030;2023-10-09T01:37:05;100938.78;;;16.12;80.25
32081;BME280;18593;51.426;7.030;2023-10-09T01:39:40;100948.25;;;16.14;79.96
32081;BME280;18593;51.426;7.030;2023-10-09T01:42:08;100946.63;;;16.13;80.23
32081;BME280;18593;51.426;7.030;2023-10-09T01:44:36;100952.59;;;16.15;79.90
32081;BME280;18593;51.426;7.030;2023-10-09T01:47:09;100958.19;;;16.14;79.95
32081;BME280;18593;51.426;7.030;2023-10-09T01:49:40;100948.25;;;16.14;80.00
32081;BME280;18593;51.426;7.030;2023-10-09T01:52:11;100940.06;;;16.09;79.83
32081;BME280;18593;51.426;7.030;2023-10-09T01:54:44;100948.94;;;16.10;79.58
32081;BME280;18593;51.426;7.030;2023-10-09T01:57:16;100950.00;;;16.09;79.83
32081;BME280;18593;51.426;7.030;2023-10-09T01:59:49;100945.44;;;16.09;79.50
32081;BME280;18593;51.426;7.030;2023-10-09T02:02:20;100948.38;;;16.08;79.46
32081;BME280;18593;51.426;7.030;2023-10-09T02:05:00;100953.53;;;16.09;79.35
32081;BME280;18593;51.426;7.030;2023-10-09T02:07:49;100946.25;;;16.10;79.05
32081;BME280;18593;51.426;7.030;2023-10-09T02:10:21;100958.09;;;16.09;79.19
32081;BME280;18593;51.426;7.030;2023-10-09T02:12:52;100948.38;;;16.08;79.42
32081;BME280;18593;51.426;7.030;2023-10-09T02:15:23;100948.38;;;16.08;79.34
32081;BME280;18593;51.426;7.030;2023-10-09T02:18:05;100944.28;;;16.05;79.42
32081;BME280;18593;51.426;7.030;2023-10-09T02:20:43;100935.88;;;16.02;79.58
32081;BME280;18593;51.426;7.030;2023-10-09T02:23:12;100936.09;;;16.00;79.58
32081;BME280;18593;51.426;7.030;2023-10-09T02:25:42;100934.47;;;15.99;79.79
32081;BME280;18593;51.426;7.030;2023-10-09T02:28:11;100931.19;;;15.97;80.09
32081;BME280;18593;51.426;7.030;2023-10-09T02:30:44;100928.50;;;15.97;80.26
32081;BME280;18593;51.426;7.030;2023-10-09T02:33:14;100930.38;;;15.96;80.50
32081;BME280;18593;51.426;7.030;2023-10-09T02:35:45;100929.91;;;16.00;80.08
32081;BME280;18593;51.426;7.030;2023-10-09T02:38:17;100936.94;;;16.01;80.02
32081;BME280;18593;51.426;7.030;2023-10-09T02:40:51;100927.00;;;16.01;80.03
32081;BME280;18593;51.426;7.030;2023-10-09T02:43:47;100936.09;;;16.00;80.35
32081;BME280;18593;51.426;7.030;2023-10-09T02:46:18;100928.03;;;16.00;80.28
32081;BME280;18593;51.426;7.030;2023-10-09T02:48:48;100929.31;;;15.98;80.56
32081;BME280;18593;51.426;7.030;2023-10-09T02:51:18;100935.28;;;16.00;80.52
32081;BME280;18593;51.426;7.030;2023-10-09T02:53:59;100924.50;;;16.00;79.94
32081;BME280;18593;51.426;7.030;2023-10-09T02:56:36;100914.00;;;15.98;80.29
32081;BME280;18593;51.426;7.030;2023-10-09T02:59:09;100931.78;;;15.99;80.47
32081;BME280;18593;51.426;7.030;2023-10-09T03:01:40;100929.31;;;15.98;80.43
32081;BME280;18593;51.426;7.030;2023-10-09T03:04:08;100921.81;;;16.00;80.33
32081;BME280;18593;51.426;7.030;2023-10-09T03:06:41;100913.28;;;16.03;79.98
32081;BME280;18593;51.426;7.030;2023-10-09T03:09:17;100910.03;;;16.01;80.28
32081;BME280;18593;51.426;7.030;2023-10-09T03:11:48;100911.66;;;16.02;80.26
32081;BME280;18593;51.426;7.030;2023-10-09T03:14:19;100915.97;;;16.03;80.14
32081;BME280;18593;51.426;7.030;2023-10-09T03:16:46;100917.16;;;16.07;80.22
32081;BME280;18593;51.426;7.030;2023-10-09T03:19:15;100906.97;;;16.09;80.01
32081;BME280;18593;51.426;7.030;2023-10-09T03:21:43;100898.06;;;16.08;79.81
32081;BME280;18593;51.426;7.030;2023-10-09T03:24:11;100909.09;;;16.07;79.84
32081;BME280;18593;51.426;7.030;2023-10-09T03:26:39;100906.59;;;16.05;79.95
32081;BME280;18593;51.426;7.030;2023-10-09T03:29:34;100897.25;;;16.08;79.96
32081;BME280;18593;51.426;7.030;2023-10-09T03:32:03;100894.22;;;16.04;79.96
32081;BME280;18593;51.426;7.030;2023-10-09T03:34:34;100897.72;;;16.05;80.07
32081;BME280;18593;51.426;7.030;2023-10-09T03:37:02;100897.00;;;16.09;79.67
32081;BME280;18593;51.426;7.030;2023-10-09T03:39:47;100894.09;;;16.11;79.63
32081;BME280;18593;51.426;7.030;2023-10-09T03:42:17;100889.75;;;16.10;79.81
32081;BME280;18593;51.426;7.030;2023-10-09T03:44:48;100873.03;;;16.08;79.75
32081;BME280;18593;51.426;7.030;2023-10-09T03:47:19;100870.34;;;16.08;79.77
32081;BME280;18593;51.426;7.030;2023-10-09T03:49:48;100868.22;;;16.10;79.87
32081;BME280;18593;51.426;7.030;2023-10-09T03:52:20;100861.22;;;16.09;79.54
32081;BME280;18593;51.426;7.030;2023-10-09T03:54:51;100862.63;;;16.11;79.45
32081;BME280;18593;51.426;7.030;2023-10-09T03:57:19;100868.00;;;16.11;79.53
32081;BME280;18593;51.426;7.030;2023-10-09T03:59:49;100870.44;;;16.13;79.57
32081;BME280;18593;51.426;7.030;2023-10-09T04:02:21;100871.25;;;16.13;79.46
32081;BME280;18593;51.426;7.030;2023-10-09T04:04:48;100864.72;;;16.09;79.63
32081;BME280;18593;51.426;7.030;2023-10-09T04:07:17;100874.22;;;16.12;79.64
32081;BME280;18593;51.426;7.030;2023-10-09T04:09:45;100868.81;;;16.12;79.60
32081;BME280;18593;51.426;7.030;2023-10-09T04:12:14;100872.91;;;16.14;79.55
32081;BME280;18593;51.426;7.030;2023-10-09T04:14:52;100870.81;;;16.16;79.32
32081;BME280;18593;51.426;7.030;2023-10-09T04:17:23;100862.47;;;16.18;79.09
32081;BME280;18593;51.426;7.030;2023-10-09T04:20:00;100864.13;;;16.19;79.09
32081;BME280;18593;51.426;7.030;2023-10-09T04:22:51;100859.78;;;16.18;79.01
32081;BME280;18593;51.426;7.030;2023-10-09T04:25:26;100865.19;;;16.18;79.11
32081;BME280;18593;51.426;7.030;2023-10-09T04:27:56;100856.28;;;16.17;79.19
32081;BME280;18593;51.426;7.030;2023-10-09T04:30:38;100846.91;;;16.20;79.07
32081;BME280;18593;51.426;7.030;2023-10-09T04:33:09;100856.03;;;16.19;78.96
32081;BME280;18593;51.426;7.030;2023-10-09T04:35:54;100845.16;;;16.14;79.06
32081;BME280;18593;51.426;7.030;2023-10-09T04:38:35;100853.16;;;16.09;79.25
32081;BME280;18593;51.426;7.030;2023-10-09T04:41:06;100850.44;;;16.09;79.07
32081;BME280;18593;51.426;7.030;2023-10-09T04:43:34;100851.50;;;16.08;79.32
32081;BME280;18593;51.426;7.030;2023-10-09T04:46:03;100848.34;;;16.11;79.52
32081;BME280;18593;51.426;7.030;2023-10-09T04:48:36;100855.72;;;16.04;79.45
32081;BME280;18593;51.426;7.030;2023-10-09T04:51:08;100852.09;;;16.10;79.49
32081;BME280;18593;51.426;7.030;2023-10-09T04:53:47;100847.75;;;16.09;79.54
32081;BME280;18593;51.426;7.030;2023-10-09T04:56:26;100854.78;;;16.10;79.36
32081;BME280;18593;51.426;7.030;2023-10-09T04:58:57;100844.34;;;16.13;79.32
32081;BME280;18593;51.426;7.030;2023-10-09T05:01:36;100853.03;;;16.15;79.17
32081;BME280;18593;51.426;7.030;2023-10-09T05:04:11;100862.47;;;16.18;78.76
32081;BME280;18593;51.426;7.030;2023-10-09T05:06:55;100864.94;;;16.19;79.00
32081;BME280;18593;51.426;7.030;2023-10-09T05:09:23;100855.56;;;16.22;78.90
32081;BME280;18593;51.426;7.030;2023-10-09T05:11:51;100841.78;;;16.18;78.81
32081;BME280;18593;51.426;7.030;2023-10-09T05:14:35;100832.78;;;16.13;79.10
32081;BME280;18593;51.426;7.030;2023-10-09T05:17:07;100836.03;;;16.15;79.02
32081;BME280;18593;51.426;7.030;2023-10-09T05:19:43;100824.25;;;16.16;79.10
32081;BME280;18593;51.426;7.030;2023-10-09T05:22:21;100825.06;;;16.16;79.12
32081;BME280;18593;51.426;7.030;2023-10-09T05:25:12;100837.19;;;16.19;79.24
32081;BME280;18593;51.426;7.030;2023-10-09T05:28:03;100850.91;;;16.17;79.21
32081;BME280;18593;51.426;7.030;2023-10-09T05:30:50;100874.78;;;16.14;79.24
32081;BME280;18593;51.426;7.030;2023-10-09T05:33:30;100868.31;;;16.15;79.31
32081;BME280;18593;51.426;7.030;2023-10-09T05:36:02;100886.94;;;16.16;79.27
32081;BME280;18593;51.426;7.030;2023-10-09T05:38:43;100904.38;;;16.14;79.22
32081;BME280;18593;51.426;7.030;2023-10-09T05:41:24;100900.16;;;16.18;79.20
32081;BME280;18593;51.426;7.030;2023-10-09T05:44:13;100899.91;;;16.19;79.29
32081;BME280;18593;51.426;7.030;2023-10-09T05:46:58;100900.72;;;16.20;79.18
32081;BME280;18593;51.426;7.030;2023-10-09T05:49:56;100904.25;;;16.20;79.24
32081;BME280;18593;51.426;7.030;2023-10-09T05:52:38;100893.81;;;16.24;78.94
32081;BME280;18593;51.426;7.030;2023-10-09T05:55:25;100891.84;;;16.19;79.10
32081;BME280;18593;51.426;7.030;2023-10-09T05:58:10;100900.97;;;16.18;79.09
32081;BME280;18593;51.426;7.030;2023-10-09T06:00:57;100902.28;;;16.16;79.09
32081;BME280;18593;51.426;7.030;2023-10-09T06:03:42;100917.13;;;16.18;79.28
32081;BME280;18593;51.426;7.030;2023-10-09T06:06:21;100924.38;;;16.18;79.14
32081;BME280;18593;51.426;7.030;2023-10-09T06:09:09;100922.84;;;16.22;79.13
32081;BME280;18593;51.426;7.030;2023-10-09T06:11:53;100923.31;;;16.19;79.31
32081;BME280;18593;51.426;7.030;2023-10-09T06:14:35;100929.88;;;16.23;79.21
32081;BME280;18593;51.426;7.030;2023-10-09T06:17:15;100940.53;;;16.18;79.27
32081;BME280;18593;51.426;7.030;2023-10-09T06:19:49;100945.34;;;16.16;79.46
32081;BME280;18593;51.426;7.030;2023-10-09T06:22:26;100947.78;;;16.17;79.45
32081;BME280;18593;51.426;7.030;2023-10-09T06:25:25;100956.69;;;16.18;79.79
32081;BME280;18593;51.426;7.030;2023-10-09T06:27:58;100952.91;;;16.19;79.84
32081;BME280;18593;51.426;7.030;2023-10-09T06:30:27;100958.09;;;16.20;79.60
32081;BME280;18593;51.426;7.030;2023-10-09T06:32:54;100950.59;;;16.22;79.54
32081;BME280;18593;51.426;7.030;2023-10-09T06:38:03;100950.44;;;16.29;79.09
32081;BME280;18593;51.426;7.030;2023-10-09T06:40:52;100954.81;;;16.30;79.54
32081;BME280;18593;51.426;7.030;2023-10-09T06:43:37;100957.50;;;16.30;79.24
32081;BME280;18593;51.426;7.030;2023-10-09T06:46:15;100959.13;;;16.31;79.48
32081;BME280;18593;51.426;7.030;2023-10-09T06:49:00;100946.13;;;16.28;79.64
32081;BME280;18593;51.426;7.030;2023-10-09T06:51:50;100941.22;;;16.25;79.78
32081;BME280;18593;51.426;7.030;2023-10-09T06:54:23;100939.94;;;16.28;80.05
32081;BME280;18593;51.426;7.030;2023-10-09T06:56:53;100913.00;;;16.28;79.96
32081;BME280;18593;51.426;7.030;2023-10-09T06:59:37;100926.00;;;16.31;80.21
32081;BME280;18593;51.426;7.030;2023-10-09T07:02:19;100945.88;;;16.30;80.42
32081;BME280;18593;51.426;7.030;2023-10-09T07:04:53;100965.56;;;16.30;80.47
32081;BME280;18593;51.426;7.030;2023-10-09T07:07:37;100950.22;;;16.31;80.71
32081;BME280;18593;51.426;7.030;2023-10-09T07:10:18;100946.13;;;16.28;81.09
32081;BME280;18593;51.426;7.030;2023-10-09T07:13:00;100955.00;;;16.29;81.13
32081;BME280;18593;51.426;7.030;2023-10-09T07:15:29;100943.78;;;16.32;81.15
32081;BME280;18593;51.426;7.030;2023-10-09T07:18:22;100951.97;;;16.37;81.16
32081;BME280;18593;51.426;7.030;2023-10-09T07:21:07;100962.47;;;16.38;81.22
32081;BME280;18593;51.426;7.030;2023-10-09T07:23:37;100962.47;;;16.38;81.51
32081;BME280;18593;51.426;7.030;2023-10-09T07:26:15;100970.25;;;16.35;81.18
32081;BME280;18593;51.426;7.030;2023-10-09T07:28:50;100972.94;;;16.35;81.10
32081;BME280;18593;51.426;7.030;2023-10-09T07:31:28;100987.22;;;16.35;80.96
32081;BME280;18593;51.426;7.030;2023-10-09T07:34:05;100980.50;;;16.38;81.39
32081;BME280;18593;51.426;7.030;2023-10-09T07:36:55;100970.09;;;16.41;81.36
32081;BME280;18593;51.426;7.030;2023-10-09T07:39:23;100941.66;;;16.45;80.94
32081;BME280;18593;51.426;7.030;2023-10-09T07:42:05;100913.06;;;16.44;80.60
32081;BME280;18593;51.426;7.030;2023-10-09T07:44:52;100912.50;;;16.42;81.16
32081;BME280;18593;51.426;7.030;2023-10-09T07:47:21;100903.34;;;16.43;80.93
32081;BME280;18593;51.426;7.030;2023-10-09T07:50:12;100893.75;;;16.47;81.22
32081;BME280;18593;51.426;7.030;2023-10-09T07:52:42;100924.06;;;16.55;81.02
32081;BME280;18593;51.426;7.030;2023-10-09T07:55:16;100925.69;;;16.56;81.15
32081;BME280;18593;51.426;7.030;2023-10-09T07:58:07;100924.28;;;16.53;80.96
32081;BME280;18593;51.426;7.030;2023-10-09T08:00:37;100924.28;;;16.53;81.08
32081;BME280;18593;51.426;7.030;2023-10-09T08:03:29;100943.94;;;16.54;81.02
32081;BME280;18593;51.426;7.030;2023-10-09T08:06:00;100944.44;;;16.51;80.80
32081;BME280;18593;51.426;7.030;2023-10-09T08:08:54;100949.34;;;16.54;80.57
32081;BME280;18593;51.426;7.030;2023-10-09T08:11:38;100955.31;;;16.56;80.50
32081;BME280;18593;51.426;7.030;2023-10-09T08:14:27;100995.00;;;16.60;80.65
32081;BME280;18593;51.426;7.030;2023-10-09T08:17:14;100998.84;;;16.64;80.16
32081;BME280;18593;51.426;7.030;2023-10-09T08:19:48;101000.84;;;16.69;80.64
32081;BME280;18593;51.426;7.030;2023-10-09T08:22:28;101008.91;;;16.69;81.04
32081;BME280;18593;51.426;7.030;2023-10-09T08:25:16;101015.13;;;16.69;80.41
32081;BME280;18593;51.426;7.030;2023-10-09T08:28:00;101014.88;;;16.71;80.23
32081;BME280;18593;51.426;7.030;2023-10-09T08:30:47;101006.34;;;16.74;80.47
32081;BME280;18593;51.426;7.030;2023-10-09T08:33:29;100991.81;;;16.75;80.49
32081;BME280;18593;51.426;7.030;2023-10-09T08:36:10;100977.63;;;16.80;80.49
32081;BME280;18593;51.426;7.030;2023-10-09T08:38:41;100988.41;;;16.80;80.62
32081;BME280;18593;51.426;7.030;2023-10-09T08:41:10;100979.97;;;16.76;80.63
32081;BME280;18593;51.426;7.030;2023-10-09T08:43:50;100982.69;;;16.76;80.69
32081;BME280;18593;51.426;7.030;2023-10-09T08:46:23;100971.91;;;16.76;81.06
32081;BME280;18593;51.426;7.030;2023-10-09T08:48:55;100968.66;;;16.74;81.50
32081;BME280;18593;51.426;7.030;2023-10-09T08:51:24;100981.88;;;16.76;81.75
32081;BME280;18593;51.426;7.030;2023-10-09T08:53:52;100956.31;;;16.78;81.95
32081;BME280;18593;51.426;7.030;2023-10-09T08:56:21;100936.16;;;16.81;82.11
32081;BME280;18593;51.426;7.030;2023-10-09T08:58:53;100914.88;;;16.79;82.17
32081;BME280;18593;51.426;7.030;2023-10-09T09:01:23;100886.03;;;16.80;82.62
32081;BME280;18593;51.426;7.030;2023-10-09T09:03:52;100861.53;;;16.81;82.82
32081;BME280;18593;51.426;7.030;2023-10-09T09:06:22;100848.06;;;16.81;82.50
32081;BME280;18593;51.426;7.030;2023-10-09T09:08:51;100853.22;;;16.83;82.41
32081;BME280;18593;51.426;7.030;2023-10-09T09:11:21;100850.59;;;16.88;83.15
32081;BME280;18593;51.426;7.030;2023-10-09T09:14:04;100851.03;;;16.96;84.10
32081;BME280;18593;51.426;7.030;2023-10-09T09:16:35;100848.41;;;17.02;84.14
32081;BME280;18593;51.426;7.030;2023-10-09T09:19:10;100859.28;;;17.07;83.13
32081;BME280;18593;51.426;7.030;2023-10-09T09:21:50;100876.34;;;17.12;83.58
32081;BME280;18593;51.426;7.030;2023-10-09T09:24:20;100903.72;;;17.21;82.96
32081;BME280;18593;51.426;7.030;2023-10-09T09:27:01;100908.97;;;17.28;82.37
32081;BME280;18593;51.426;7.030;2023-10-09T09:29:41;100901.25;;;17.36;82.80
32081;BME280;18593;51.426;7.030;2023-10-09T09:32:28;100881.72;;;17.46;82.43
32081;BME280;18593;51.426;7.030;2023-10-09T09:35:02;100877.22;;;17.51;81.86
32081;BME280;18593;51.426;7.030;2023-10-09T09:37:32;100871.09;;;17.56;81.71
32081;BME280;18593;51.426;7.030;2023-10-09T09:40:16;100877.88;;;17.59;81.37
32081;BME280;18593;51.426;7.030;2023-10-09T09:42:58;100878.22;;;17.62;81.86
32081;BME280;18593;51.426;7.030;2023-10-09T09:45:33;100898.00;;;17.68;82.68
32081;BME280;18593;51.426;7.030;2023-10-09T09:48:04;100897.19;;;17.67;81.86
32081;BME280;18593;51.426;7.030;2023-10-09T09:50:33;100911.47;;;17.68;80.75
32081;BME280;18593;51.426;7.030;2023-10-09T09:53:05;100911.31;;;17.74;81.36
32081;BME280;18593;51.426;7.030;2023-10-09T09:55:35;100921.38;;;17.79;81.27
32081;BME280;18593;51.426;7.030;2023-10-09T09:58:14;100912.88;;;17.87;80.75
32081;BME280;18593;51.426;7.030;2023-10-09T10:00:47;100927.25;;;17.93;79.71
32081;BME280;18593;51.426;7.030;2023-10-09T10:03:25;100934.00;;;17.95;78.85
32081;BME280;18593;51.426;7.030;2023-10-09T10:05:55;100940.00;;;17.97;78.38
32081;BME280;18593;51.426;7.030;2023-10-09T10:08:24;100949.47;;;18.00;77.78
32081;BME280;18593;51.426;7.030;2023-10-09T10:10:58;100953.88;;;18.06;76.93
32081;BME280;18593;51.426;7.030;2023-10-09T10:13:55;100944.19;;;18.10;76.91
32081;BME280;18593;51.426;7.030;2023-10-09T10:16:31;100947.97;;;18.09;76.50
32081;BME280;18593;51.426;7.030;2023-10-09T10:19:04;100952.56;;;18.09;77.06
32081;BME280;18593;51.426;7.030;2023-10-09T10:21:48;100954.19;;;18.10;75.75
32081;BME280;18593;51.426;7.030;2023-10-09T10:24:41;100952.06;;;18.12;76.33
32081;BME280;18593;51.426;7.030;2023-10-09T10:27:29;100963.94;;;18.11;75.71
32081;BME280;18593;51.426;7.030;2023-10-09T10:30:30;100953.13;;;18.11;76.08
32081;BME280;18593;51.426;7.030;2023-10-09T10:33:02;100946.91;;;18.10;76.34
32081;BME280;18593;51.426;7.030;2023-10-09T10:35:43;100944.78;;;18.12;76.57
32081;BME280;18593;51.426;7.030;2023-10-09T10:38:29;100954.25;;;18.15;76.86
32081;BME280;18593;51.426;7.030;2023-10-09T10:41:10;100964.81;;;18.16;77.09
32081;BME280;18593;51.426;7.030;2023-10-09T10:43:40;100959.97;;;18.18;76.77
32081;BME280;18593;51.426;7.030;2023-10-09T10:46:31;100962.25;;;18.26;77.77
32081;BME280;18593;51.426;7.030;2023-10-09T10:49:05;100938.28;;;18.30;77.19
32081;BME280;18593;51.426;7.030;2023-10-09T10:51:48;100947.69;;;18.27;76.20
32081;BME280;18593;51.426;7.030;2023-10-09T10:54:26;100946.88;;;18.27;76.25
32081;BME280;18593;51.426;7.030;2023-10-09T10:57:15;100950.13;;;18.29;76.08
32081;BME280;18593;51.426;7.030;2023-10-09T10:59:56;100951.53;;;18.32;75.71
32081;BME280;18593;51.426;7.030;2023-10-09T11:03:00;100943.16;;;18.33;75.51
32081;BME280;18593;51.426;7.030;2023-10-09T11:05:42;100944.28;;;18.37;75.52
32081;BME280;18593;51.426;7.030;2023-10-09T11:08:18;100947.31;;;18.41;75.36
32081;BME280;18593;51.426;7.030;2023-10-09T11:10:53;100951.38;;;18.43;75.72
32081;BME280;18593;51.426;7.030;2023-10-09T11:13:42;100942.78;;;18.46;74.78
32081;BME280;18593;51.426;7.030;2023-10-09T11:16:26;100949.88;;;18.52;75.33
32081;BME280;18593;51.426;7.030;2023-10-09T11:19:10;100945.28;;;18.53;74.49
32081;BME280;18593;51.426;7.030;2023-10-09T11:21:50;100942.84;;;18.51;74.06
32081;BME280;18593;51.426;7.030;2023-10-09T11:24:28;100948.50;;;18.50;73.22
32081;BME280;18593;51.426;7.030;2023-10-09T11:26:59;100954.19;;;18.53;73.83
32081;BME280;18593;51.426;7.030;2023-10-09T11:29:32;100947.16;;;18.52;73.31
32081;BME280;18593;51.426;7.030;2023-10-09T11:32:16;100949.38;;;18.56;73.66
32081;BME280;18593;51.426;7.030;2023-10-09T11:35:11;100944.78;;;18.56;72.90
32081;BME280;18593;51.426;7.030;2023-10-09T11:37:40;100951.56;;;18.59;73.90
32081;BME280;18593;51.426;7.030;2023-10-09T11:40:29;100952.09;;;18.56;72.03
32081;BME280;18593;51.426;7.030;2023-10-09T11:43:01;100949.94;;;18.58;73.92
32081;BME280;18593;51.426;7.030;2023-10-09T11:45:30;100952.16;;;18.61;73.64
32081;BME280;18593;51.426;7.030;2023-10-09T11:48:17;100943.50;;;18.64;73.74
32081;BME280;18593;51.426;7.030;2023-10-09T11:50:54;100949.50;;;18.66;73.97
32081;BME280;18593;51.426;7.030;2023-10-09T11:53:23;100954.19;;;18.70;74.01
32081;BME280;18593;51.426;7.030;2023-10-09T11:56:04;100949.31;;;18.72;73.80
32081;BME280;18593;51.426;7.030;2023-10-09T11:58:31;100946.66;;;18.77;74.13
32081;BME280;18593;51.426;7.030;2023-10-09T12:00:59;100946.19;;;18.81;73.70
32081;BME280;18593;51.426;7.030;2023-10-09T12:03:31;100945.09;;;18.82;74.02
32081;BME280;18593;51.426;7.030;2023-10-09T12:06:00;100934.84;;;18.84;73.38
32081;BME280;18593;51.426;7.030;2023-10-09T12:08:32;100936.72;;;18.83;73.18
32081;BME280;18593;51.426;7.030;2023-10-09T12:11:01;100938.38;;;18.84;73.27
32081;BME280;18593;51.426;7.030;2023-10-09T12:13:36;100932.13;;;18.84;73.36
32081;BME280;18593;51.426;7.030;2023-10-09T12:16:05;100937.53;;;18.84;73.19
32081;BME280;18593;51.426;7.030;2023-10-09T12:21:05;100933.53;;;18.86;73.37
32081;BME280;18593;51.426;7.030;2023-10-09T12:23:33;100919.75;;;18.88;73.14
32081;BME280;18593;51.426;7.030;2023-10-09T12:26:02;100932.75;;;18.91;73.58
32081;BME280;18593;51.426;7.030;2023-10-09T12:28:29;100924.38;;;18.92;74.24
32081;BME280;18593;51.426;7.030;2023-10-09T12:31:00;100919.31;;;18.96;73.55
32081;BME280;18593;51.426;7.030;2023-10-09T12:33:29;100920.59;;;18.93;71.00
32081;BME280;18593;51.426;7.030;2023-10-09T12:35:58;100931.19;;;18.95;71.91
32081;BME280;18593;51.426;7.030;2023-10-09T12:38:27;100928.78;;;18.98;72.40
32081;BME280;18593;51.426;7.030;2023-10-09T12:41:03;100932.81;;;18.96;72.52
32081;BME280;18593;51.426;7.030;2023-10-09T12:43:43;100937.41;;;18.95;71.30
32081;BME280;18593;51.426;7.030;2023-10-09T12:46:12;100939.31;;;18.95;71.84
32081;BME280;18593;51.426;7.030;2023-10-09T12:48:43;100930.13;;;18.96;72.30
32081;BME280;18593;51.426;7.030;2023-10-09T12:51:12;100932.56;;;18.97;73.79
32081;BME280;18593;51.426;7.030;2023-10-09T12:53:42;100940.66;;;18.97;71.72
32081;BME280;18593;51.426;7.030;2023-10-09T12:56:10;100941.75;;;18.96;71.45
32081;BME280;18593;51.426;7.030;2023-10-09T12:58:38;100938.22;;;18.96;71.82
32081;BME280;18593;51.426;7.030;2023-10-09T13:01:06;100942.81;;;18.95;71.36
32081;BME280;18593;51.426;7.030;2023-10-09T13:03:38;100933.91;;;18.95;71.90
32081;BME280;18593;51.426;7.030;2023-10-09T13:06:06;100938.47;;;18.94;71.67
32081;BME280;18593;51.426;7.030;2023-10-09T13:08:37;100937.41;;;18.95;71.49
32081;BME280;18593;51.426;7.030;2023-10-09T13:11:08;100935.53;;;18.96;72.30
32081;BME280;18593;51.426;7.030;2023-10-09T13:13:39;100934.44;;;18.97;71.75
32081;BME280;18593;51.426;7.030;2023-10-09T13:16:13;100941.25;;;18.99;71.87
32081;BME280;18593;51.426;7.030;2023-10-09T13:18:51;100931.56;;;19.03;72.41
32081;BME280;18593;51.426;7.030;2023-10-09T13:21:20;100921.53;;;19.04;72.15
32081;BME280;18593;51.426;7.030;2023-10-09T13:23:49;100932.66;;;19.08;72.27
32081;BME280;18593;51.426;7.030;2023-10-09T13:26:18;100934.31;;;19.09;71.85
32081;BME280;18593;51.426;7.030;2023-10-09T13:28:52;100932.16;;;19.11;71.43
32081;BME280;18593;51.426;7.030;2023-10-09T13:31:21;100936.47;;;19.12;71.71
32081;BME280;18593;51.426;7.030;2023-10-09T13:33:53;100929.16;;;19.12;70.37
32081;BME280;18593;51.426;7.030;2023-10-09T13:36:23;100923.00;;;19.17;72.09
32081;BME280;18593;51.426;7.030;2023-10-09T13:39:00;100921.41;;;19.21;72.43
32081;BME280;18593;51.426;7.030;2023-10-09T13:41:46;100920.91;;;19.24;72.08